Terminal Aerodrome Forecast
Issued by NWS

Home | Current Version | Previous Version | Text Only | Print | Product List | Glossary On
Versions: 1 2 3 4 5 6 7 8 9 10 11 12
000
FTPA31 PHFO 230520
TAFHOG
TAF
PHOG 230520Z 2306/2406 05013G20KT P6SM SCT050
     FM230800 05012KT P6SM VCSH FEW030 SCT050
     FM231900 05020G30KT P6SM FEW030 SCT050
     FM240500 06014KT P6SM FEW030 SCT050
      AMD LTD TO VIS AND WIND 2309/2316=

USA.gov is the U.S. government's official web portal to all federal, state and local government web resources and services.